sensor_id;sensor_type;location;lat;lon;timestamp;P1;durP1;ratioP1;P2;durP2;ratioP2
45354;SDS011;31091;48.758;9.150;2023-07-24T00:02:20;11.32;;;6.38;;
45354;SDS011;31091;48.758;9.150;2023-07-24T00:05:05;10.57;;;6.15;;
45354;SDS011;31091;48.758;9.150;2023-07-24T00:07:51;11.27;;;6.65;;
45354;SDS011;31091;48.758;9.150;2023-07-24T00:10:36;12.15;;;6.40;;
45354;SDS011;31091;48.758;9.150;2023-07-24T00:13:21;10.45;;;5.95;;
45354;SDS011;31091;48.758;9.150;2023-07-24T00:16:07;10.93;;;6.40;;
45354;SDS011;31091;48.758;9.150;2023-07-24T00:18:52;10.25;;;5.85;;
45354;SDS011;31091;48.758;9.150;2023-07-24T00:21:38;13.30;;;7.15;;
45354;SDS011;31091;48.758;9.150;2023-07-24T00:24:23;10.75;;;6.53;;
45354;SDS011;31091;48.758;9.150;2023-07-24T00:27:08;14.55;;;6.65;;
45354;SDS011;31091;48.758;9.150;2023-07-24T00:29:53;11.55;;;7.15;;
45354;SDS011;31091;48.758;9.150;2023-07-24T00:32:39;11.50;;;5.82;;
45354;SDS011;31091;48.758;9.150;2023-07-24T00:35:25;13.23;;;7.30;;
45354;SDS011;31091;48.758;9.150;2023-07-24T00:38:10;14.02;;;7.63;;
45354;SDS011;31091;48.758;9.150;2023-07-24T00:40:55;11.48;;;5.85;;
45354;SDS011;31091;48.758;9.150;2023-07-24T00:43:40;10.77;;;6.57;;
45354;SDS011;31091;48.758;9.150;2023-07-24T00:46:26;12.30;;;6.68;;
45354;SDS011;31091;48.758;9.150;2023-07-24T00:49:11;11.30;;;6.55;;
45354;SDS011;31091;48.758;9.150;2023-07-24T00:51:57;12.93;;;8.05;;
45354;SDS011;31091;48.758;9.150;2023-07-24T00:54:42;13.18;;;6.72;;
45354;SDS011;31091;48.758;9.150;2023-07-24T00:57:28;11.23;;;6.20;;
45354;SDS011;31091;48.758;9.150;2023-07-24T01:00:14;9.57;;;5.82;;
45354;SDS011;31091;48.758;9.150;2023-07-24T01:02:59;10.38;;;5.78;;
45354;SDS011;31091;48.758;9.150;2023-07-24T01:05:44;12.45;;;7.20;;
45354;SDS011;31091;48.758;9.150;2023-07-24T01:08:30;11.90;;;6.60;;
45354;SDS011;31091;48.758;9.150;2023-07-24T01:11:19;11.00;;;6.30;;
45354;SDS011;31091;48.758;9.150;2023-07-24T01:16:50;12.00;;;6.78;;
45354;SDS011;31091;48.758;9.150;2023-07-24T01:19:41;10.52;;;5.72;;
45354;SDS011;31091;48.758;9.150;2023-07-24T01:25:23;12.57;;;7.07;;
45354;SDS011;31091;48.758;9.150;2023-07-24T01:28:12;12.68;;;7.57;;
45354;SDS011;31091;48.758;9.150;2023-07-24T01:30:57;11.07;;;6.38;;
45354;SDS011;31091;48.758;9.150;2023-07-24T01:33:45;9.45;;;5.90;;
45354;SDS011;31091;48.758;9.150;2023-07-24T01:36:31;12.13;;;6.82;;
45354;SDS011;31091;48.758;9.150;2023-07-24T01:39:16;11.70;;;6.53;;
45354;SDS011;31091;48.758;9.150;2023-07-24T01:42:02;12.60;;;6.15;;
45354;SDS011;31091;48.758;9.150;2023-07-24T01:44:53;10.45;;;6.53;;
45354;SDS011;31091;48.758;9.150;2023-07-24T01:47:39;12.55;;;6.28;;
45354;SDS011;31091;48.758;9.150;2023-07-24T01:50:24;10.50;;;5.55;;
45354;SDS011;31091;48.758;9.150;2023-07-24T01:53:10;11.13;;;6.72;;
45354;SDS011;31091;48.758;9.150;2023-07-24T01:55:55;12.15;;;6.30;;
45354;SDS011;31091;48.758;9.150;2023-07-24T01:58:40;11.45;;;7.53;;
45354;SDS011;31091;48.758;9.150;2023-07-24T02:01:25;13.88;;;6.95;;
45354;SDS011;31091;48.758;9.150;2023-07-24T02:04:11;13.65;;;6.72;;
45354;SDS011;31091;48.758;9.150;2023-07-24T02:06:56;12.68;;;7.40;;
45354;SDS011;31091;48.758;9.150;2023-07-24T02:09:41;12.18;;;6.97;;
45354;SDS011;31091;48.758;9.150;2023-07-24T02:12:26;11.50;;;6.28;;
45354;SDS011;31091;48.758;9.150;2023-07-24T02:15:11;11.02;;;6.88;;
45354;SDS011;31091;48.758;9.150;2023-07-24T02:17:57;13.63;;;7.72;;
45354;SDS011;31091;48.758;9.150;2023-07-24T02:20:47;11.77;;;7.40;;
45354;SDS011;31091;48.758;9.150;2023-07-24T02:23:33;10.65;;;6.45;;
45354;SDS011;31091;48.758;9.150;2023-07-24T02:26:18;12.88;;;7.07;;
45354;SDS011;31091;48.758;9.150;2023-07-24T02:29:03;11.07;;;6.15;;
45354;SDS011;31091;48.758;9.150;2023-07-24T02:31:49;11.00;;;6.53;;
45354;SDS011;31091;48.758;9.150;2023-07-24T02:34:34;13.05;;;6.82;;
45354;SDS011;31091;48.758;9.150;2023-07-24T02:37:20;10.73;;;6.57;;
45354;SDS011;31091;48.758;9.150;2023-07-24T02:40:05;13.35;;;7.28;;
45354;SDS011;31091;48.758;9.150;2023-07-24T02:42:50;11.23;;;6.57;;
45354;SDS011;31091;48.758;9.150;2023-07-24T02:45:38;12.45;;;7.22;;
45354;SDS011;31091;48.758;9.150;2023-07-24T02:48:24;15.35;;;8.05;;
45354;SDS011;31091;48.758;9.150;2023-07-24T02:51:09;10.20;;;6.25;;
45354;SDS011;31091;48.758;9.150;2023-07-24T02:53:54;9.98;;;5.97;;
45354;SDS011;31091;48.758;9.150;2023-07-24T02:56:40;10.77;;;7.10;;
45354;SDS011;31091;48.758;9.150;2023-07-24T02:59:25;12.57;;;7.60;;
45354;SDS011;31091;48.758;9.150;2023-07-24T03:02:10;11.30;;;6.82;;
45354;SDS011;31091;48.758;9.150;2023-07-24T03:04:55;10.98;;;6.35;;
45354;SDS011;31091;48.758;9.150;2023-07-24T03:07:41;11.32;;;6.50;;
45354;SDS011;31091;48.758;9.150;2023-07-24T03:10:26;11.98;;;6.47;;
45354;SDS011;31091;48.758;9.150;2023-07-24T03:13:11;10.07;;;6.43;;
45354;SDS011;31091;48.758;9.150;2023-07-24T03:15:56;11.93;;;6.25;;
45354;SDS011;31091;48.758;9.150;2023-07-24T03:18:42;13.00;;;7.05;;
45354;SDS011;31091;48.758;9.150;2023-07-24T03:21:28;12.80;;;7.03;;
45354;SDS011;31091;48.758;9.150;2023-07-24T03:24:13;12.30;;;7.13;;
45354;SDS011;31091;48.758;9.150;2023-07-24T03:26:58;10.98;;;6.68;;
45354;SDS011;31091;48.758;9.150;2023-07-24T03:29:45;12.98;;;7.50;;
45354;SDS011;31091;48.758;9.150;2023-07-24T03:32:30;10.38;;;6.20;;
45354;SDS011;31091;48.758;9.150;2023-07-24T03:35:15;12.80;;;7.25;;
45354;SDS011;31091;48.758;9.150;2023-07-24T03:38:00;10.70;;;6.22;;
45354;SDS011;31091;48.758;9.150;2023-07-24T03:40:45;11.43;;;6.15;;
45354;SDS011;31091;48.758;9.150;2023-07-24T03:43:32;10.43;;;6.28;;
45354;SDS011;31091;48.758;9.150;2023-07-24T03:46:17;10.98;;;6.45;;
45354;SDS011;31091;48.758;9.150;2023-07-24T03:49:02;10.45;;;6.80;;
45354;SDS011;31091;48.758;9.150;2023-07-24T03:51:48;11.05;;;6.47;;
45354;SDS011;31091;48.758;9.150;2023-07-24T03:54:33;11.00;;;6.63;;
45354;SDS011;31091;48.758;9.150;2023-07-24T03:57:18;11.07;;;6.70;;
45354;SDS011;31091;48.758;9.150;2023-07-24T04:00:04;10.70;;;6.50;;
45354;SDS011;31091;48.758;9.150;2023-07-24T04:02:49;14.05;;;7.85;;
45354;SDS011;31091;48.758;9.150;2023-07-24T04:05:35;14.45;;;7.70;;
45354;SDS011;31091;48.758;9.150;2023-07-24T04:08:20;13.00;;;7.93;;
45354;SDS011;31091;48.758;9.150;2023-07-24T04:11:05;13.13;;;8.13;;
45354;SDS011;31091;48.758;9.150;2023-07-24T04:13:51;11.30;;;7.15;;
45354;SDS011;31091;48.758;9.150;2023-07-24T04:16:36;11.90;;;6.93;;
45354;SDS011;31091;48.758;9.150;2023-07-24T04:19:21;13.57;;;7.95;;
45354;SDS011;31091;48.758;9.150;2023-07-24T04:22:06;11.75;;;7.05;;
45354;SDS011;31091;48.758;9.150;2023-07-24T04:24:52;12.32;;;7.43;;
45354;SDS011;31091;48.758;9.150;2023-07-24T04:27:37;13.80;;;7.65;;
45354;SDS011;31091;48.758;9.150;2023-07-24T04:30:22;14.90;;;8.10;;
45354;SDS011;31091;48.758;9.150;2023-07-24T04:33:08;13.02;;;7.35;;
45354;SDS011;31091;48.758;9.150;2023-07-24T04:35:54;12.70;;;7.68;;
45354;SDS011;31091;48.758;9.150;2023-07-24T04:38:39;12.23;;;6.43;;
45354;SDS011;31091;48.758;9.150;2023-07-24T04:41:24;11.63;;;7.18;;
45354;SDS011;31091;48.758;9.150;2023-07-24T04:44:10;10.63;;;5.97;;
45354;SDS011;31091;48.758;9.150;2023-07-24T04:46:55;12.05;;;6.85;;
45354;SDS011;31091;48.758;9.150;2023-07-24T04:49:40;12.25;;;7.22;;
45354;SDS011;31091;48.758;9.150;2023-07-24T04:52:26;11.75;;;6.70;;
45354;SDS011;31091;48.758;9.150;2023-07-24T04:55:11;10.65;;;5.93;;
45354;SDS011;31091;48.758;9.150;2023-07-24T04:57:56;11.57;;;7.43;;
45354;SDS011;31091;48.758;9.150;2023-07-24T05:00:41;11.05;;;6.93;;
45354;SDS011;31091;48.758;9.150;2023-07-24T05:03:26;11.80;;;6.80;;
45354;SDS011;31091;48.758;9.150;2023-07-24T05:06:12;11.93;;;7.50;;
45354;SDS011;31091;48.758;9.150;2023-07-24T05:08:57;14.65;;;6.68;;
45354;SDS011;31091;48.758;9.150;2023-07-24T05:11:42;13.18;;;7.55;;
45354;SDS011;31091;48.758;9.150;2023-07-24T05:14:29;14.05;;;7.40;;
45354;SDS011;31091;48.758;9.150;2023-07-24T05:17:15;10.80;;;6.32;;
45354;SDS011;31091;48.758;9.150;2023-07-24T05:20:00;11.93;;;6.70;;
45354;SDS011;31091;48.758;9.150;2023-07-24T05:22:48;12.65;;;7.22;;
45354;SDS011;31091;48.758;9.150;2023-07-24T05:25:33;11.27;;;6.70;;
45354;SDS011;31091;48.758;9.150;2023-07-24T05:28:19;13.05;;;6.60;;
45354;SDS011;31091;48.758;9.150;2023-07-24T05:31:04;13.52;;;7.45;;
45354;SDS011;31091;48.758;9.150;2023-07-24T05:33:49;11.10;;;6.50;;
45354;SDS011;31091;48.758;9.150;2023-07-24T05:36:34;11.35;;;6.20;;
45354;SDS011;31091;48.758;9.150;2023-07-24T05:39:20;12.85;;;7.75;;
45354;SDS011;31091;48.758;9.150;2023-07-24T05:42:05;12.57;;;6.88;;
45354;SDS011;31091;48.758;9.150;2023-07-24T05:44:50;17.20;;;8.02;;
45354;SDS011;31091;48.758;9.150;2023-07-24T05:47:35;15.00;;;7.18;;
45354;SDS011;31091;48.758;9.150;2023-07-24T05:50:21;10.88;;;6.47;;
45354;SDS011;31091;48.758;9.150;2023-07-24T05:53:06;10.48;;;6.43;;
45354;SDS011;31091;48.758;9.150;2023-07-24T05:55:58;14.43;;;6.72;;
45354;SDS011;31091;48.758;9.150;2023-07-24T05:58:43;15.65;;;7.60;;
45354;SDS011;31091;48.758;9.150;2023-07-24T06:01:29;10.80;;;6.55;;
45354;SDS011;31091;48.758;9.150;2023-07-24T06:04:14;12.60;;;7.40;;
45354;SDS011;31091;48.758;9.150;2023-07-24T06:06:59;15.07;;;8.55;;
45354;SDS011;31091;48.758;9.150;2023-07-24T06:09:44;16.38;;;8.45;;
45354;SDS011;31091;48.758;9.150;2023-07-24T06:12:29;17.48;;;9.10;;
45354;SDS011;31091;48.758;9.150;2023-07-24T06:15:15;15.90;;;7.05;;
45354;SDS011;31091;48.758;9.150;2023-07-24T06:18:00;14.02;;;7.15;;
45354;SDS011;31091;48.758;9.150;2023-07-24T06:20:45;15.98;;;6.85;;
45354;SDS011;31091;48.758;9.150;2023-07-24T06:23:30;14.88;;;7.53;;
45354;SDS011;31091;48.758;9.150;2023-07-24T06:26:16;13.25;;;7.63;;
45354;SDS011;31091;48.758;9.150;2023-07-24T06:29:01;14.48;;;7.30;;
45354;SDS011;31091;48.758;9.150;2023-07-24T06:31:46;12.32;;;7.07;;
45354;SDS011;31091;48.758;9.150;2023-07-24T06:34:31;11.48;;;6.80;;
45354;SDS011;31091;48.758;9.150;2023-07-24T06:37:16;13.77;;;6.63;;
45354;SDS011;31091;48.758;9.150;2023-07-24T06:40:02;12.10;;;6.55;;
45354;SDS011;31091;48.758;9.150;2023-07-24T06:42:47;14.52;;;7.70;;
45354;SDS011;31091;48.758;9.150;2023-07-24T06:45:32;11.70;;;7.03;;
45354;SDS011;31091;48.758;9.150;2023-07-24T06:48:18;14.35;;;6.70;;
45354;SDS011;31091;48.758;9.150;2023-07-24T06:51:03;12.07;;;7.13;;
45354;SDS011;31091;48.758;9.150;2023-07-24T06:53:48;12.63;;;7.45;;
45354;SDS011;31091;48.758;9.150;2023-07-24T06:56:33;13.25;;;8.18;;
45354;SDS011;31091;48.758;9.150;2023-07-24T06:59:18;13.45;;;7.32;;
45354;SDS011;31091;48.758;9.150;2023-07-24T07:02:04;14.02;;;7.22;;
45354;SDS011;31091;48.758;9.150;2023-07-24T07:04:49;13.98;;;8.05;;
45354;SDS011;31091;48.758;9.150;2023-07-24T07:07:34;13.32;;;6.60;;
45354;SDS011;31091;48.758;9.150;2023-07-24T07:10:19;12.80;;;8.07;;
45354;SDS011;31091;48.758;9.150;2023-07-24T07:13:05;14.68;;;7.45;;
45354;SDS011;31091;48.758;9.150;2023-07-24T07:15:50;13.70;;;6.55;;
45354;SDS011;31091;48.758;9.150;2023-07-24T07:18:35;12.73;;;7.30;;
45354;SDS011;31091;48.758;9.150;2023-07-24T07:21:20;15.23;;;7.40;;
45354;SDS011;31091;48.758;9.150;2023-07-24T07:24:05;12.07;;;6.60;;
45354;SDS011;31091;48.758;9.150;2023-07-24T07:26:51;14.50;;;8.40;;
45354;SDS011;31091;48.758;9.150;2023-07-24T07:29:36;12.98;;;6.65;;
45354;SDS011;31091;48.758;9.150;2023-07-24T07:32:21;11.63;;;6.90;;
45354;SDS011;31091;48.758;9.150;2023-07-24T07:35:06;13.88;;;7.10;;
45354;SDS011;31091;48.758;9.150;2023-07-24T07:37:52;11.77;;;7.72;;
45354;SDS011;31091;48.758;9.150;2023-07-24T07:40:37;13.57;;;7.85;;
45354;SDS011;31091;48.758;9.150;2023-07-24T07:43:24;13.32;;;7.38;;
45354;SDS011;31091;48.758;9.150;2023-07-24T07:46:09;12.75;;;8.07;;
45354;SDS011;31091;48.758;9.150;2023-07-24T07:48:54;11.68;;;7.40;;
45354;SDS011;31091;48.758;9.150;2023-07-24T07:51:39;12.60;;;7.28;;
45354;SDS011;31091;48.758;9.150;2023-07-24T07:54:24;14.80;;;8.57;;
45354;SDS011;31091;48.758;9.150;2023-07-24T07:57:10;11.70;;;7.47;;
45354;SDS011;31091;48.758;9.150;2023-07-24T07:59:55;12.85;;;7.70;;
45354;SDS011;31091;48.758;9.150;2023-07-24T08:02:43;13.68;;;8.40;;
45354;SDS011;31091;48.758;9.150;2023-07-24T08:05:28;13.73;;;8.15;;
45354;SDS011;31091;48.758;9.150;2023-07-24T08:08:13;12.93;;;6.80;;
45354;SDS011;31091;48.758;9.150;2023-07-24T08:11:03;15.50;;;7.55;;
45354;SDS011;31091;48.758;9.150;2023-07-24T08:16:33;11.90;;;7.20;;
45354;SDS011;31091;48.758;9.150;2023-07-24T08:19:18;17.52;;;7.95;;
45354;SDS011;31091;48.758;9.150;2023-07-24T08:22:04;13.00;;;7.80;;
45354;SDS011;31091;48.758;9.150;2023-07-24T08:24:50;15.27;;;9.30;;
45354;SDS011;31091;48.758;9.150;2023-07-24T08:27:36;13.77;;;8.73;;
45354;SDS011;31091;48.758;9.150;2023-07-24T08:30:21;14.30;;;8.48;;
45354;SDS011;31091;48.758;9.150;2023-07-24T08:33:06;16.58;;;8.02;;
45354;SDS011;31091;48.758;9.150;2023-07-24T08:36:01;16.45;;;8.48;;
45354;SDS011;31091;48.758;9.150;2023-07-24T08:38:47;15.25;;;7.32;;
45354;SDS011;31091;48.758;9.150;2023-07-24T08:41:32;19.02;;;8.82;;
45354;SDS011;31091;48.758;9.150;2023-07-24T08:44:19;15.65;;;7.10;;
45354;SDS011;31091;48.758;9.150;2023-07-24T08:47:06;14.48;;;7.82;;
45354;SDS011;31091;48.758;9.150;2023-07-24T08:49:54;13.57;;;8.55;;
45354;SDS011;31091;48.758;9.150;2023-07-24T08:52:39;12.52;;;7.50;;
45354;SDS011;31091;48.758;9.150;2023-07-24T08:55:25;13.77;;;7.43;;
45354;SDS011;31091;48.758;9.150;2023-07-24T08:58:10;12.00;;;7.55;;
45354;SDS011;31091;48.758;9.150;2023-07-24T09:00:56;13.57;;;7.72;;
45354;SDS011;31091;48.758;9.150;2023-07-24T09:03:41;12.20;;;7.32;;
45354;SDS011;31091;48.758;9.150;2023-07-24T09:06:27;19.95;;;9.15;;
45354;SDS011;31091;48.758;9.150;2023-07-24T09:09:15;11.20;;;7.25;;
45354;SDS011;31091;48.758;9.150;2023-07-24T09:12:00;14.52;;;7.50;;
45354;SDS011;31091;48.758;9.150;2023-07-24T09:14:46;14.98;;;7.05;;
45354;SDS011;31091;48.758;9.150;2023-07-24T09:17:31;12.23;;;6.53;;
45354;SDS011;31091;48.758;9.150;2023-07-24T09:20:19;16.02;;;7.85;;
45354;SDS011;31091;48.758;9.150;2023-07-24T09:23:04;13.38;;;6.50;;
45354;SDS011;31091;48.758;9.150;2023-07-24T09:25:50;11.32;;;6.43;;
45354;SDS011;31091;48.758;9.150;2023-07-24T09:28:35;14.43;;;7.22;;
45354;SDS011;31091;48.758;9.150;2023-07-24T09:31:20;12.77;;;6.05;;
45354;SDS011;31091;48.758;9.150;2023-07-24T09:34:13;10.10;;;6.00;;
45354;SDS011;31091;48.758;9.150;2023-07-24T09:36:58;10.45;;;6.25;;
45354;SDS011;31091;48.758;9.150;2023-07-24T09:39:45;14.10;;;7.22;;
45354;SDS011;31091;48.758;9.150;2023-07-24T09:42:32;10.80;;;7.10;;
45354;SDS011;31091;48.758;9.150;2023-07-24T09:45:17;10.10;;;5.35;;
45354;SDS011;31091;48.758;9.150;2023-07-24T09:48:02;9.57;;;6.03;;
45354;SDS011;31091;48.758;9.150;2023-07-24T09:50:48;11.50;;;6.57;;
45354;SDS011;31091;48.758;9.150;2023-07-24T09:53:37;10.68;;;6.00;;
45354;SDS011;31091;48.758;9.150;2023-07-24T09:56:23;11.43;;;6.40;;
45354;SDS011;31091;48.758;9.150;2023-07-24T09:59:09;11.43;;;6.30;;
45354;SDS011;31091;48.758;9.150;2023-07-24T10:01:55;9.15;;;5.28;;
45354;SDS011;31091;48.758;9.150;2023-07-24T10:04:40;9.30;;;6.00;;
45354;SDS011;31091;48.758;9.150;2023-07-24T10:07:26;9.75;;;5.80;;
45354;SDS011;31091;48.758;9.150;2023-07-24T10:10:12;10.45;;;5.38;;
45354;SDS011;31091;48.758;9.150;2023-07-24T10:12:57;8.18;;;5.65;;
45354;SDS011;31091;48.758;9.150;2023-07-24T10:15:43;9.80;;;5.50;;
45354;SDS011;31091;48.758;9.150;2023-07-24T10:18:29;9.68;;;5.85;;
45354;SDS011;31091;48.758;9.150;2023-07-24T10:21:17;8.07;;;5.00;;
45354;SDS011;31091;48.758;9.150;2023-07-24T10:24:02;9.30;;;5.72;;
45354;SDS011;31091;48.758;9.150;2023-07-24T10:26:47;9.73;;;5.50;;
45354;SDS011;31091;48.758;9.150;2023-07-24T10:29:36;12.27;;;5.85;;
45354;SDS011;31091;48.758;9.150;2023-07-24T10:32:21;8.73;;;5.68;;
45354;SDS011;31091;48.758;9.150;2023-07-24T10:35:07;9.02;;;5.38;;
45354;SDS011;31091;48.758;9.150;2023-07-24T10:37:59;10.25;;;5.40;;
45354;SDS011;31091;48.758;9.150;2023-07-24T10:40:45;10.77;;;6.78;;
45354;SDS011;31091;48.758;9.150;2023-07-24T10:43:41;10.55;;;5.88;;
45354;SDS011;31091;48.758;9.150;2023-07-24T10:46:35;12.45;;;6.15;;
45354;SDS011;31091;48.758;9.150;2023-07-24T10:49:21;9.98;;;6.18;;
45354;SDS011;31091;48.758;9.150;2023-07-24T10:52:06;12.25;;;6.78;;
45354;SDS011;31091;48.758;9.150;2023-07-24T10:54:51;11.95;;;6.30;;
45354;SDS011;31091;48.758;9.150;2023-07-24T10:57:37;11.13;;;6.25;;
45354;SDS011;31091;48.758;9.150;2023-07-24T11:00:22;11.88;;;6.03;;
45354;SDS011;31091;48.758;9.150;2023-07-24T11:03:11;14.07;;;6.85;;
45354;SDS011;31091;48.758;9.150;2023-07-24T11:05:57;10.98;;;6.18;;
45354;SDS011;31091;48.758;9.150;2023-07-24T11:08:42;16.13;;;6.88;;
45354;SDS011;31091;48.758;9.150;2023-07-24T11:11:35;15.73;;;7.65;;
45354;SDS011;31091;48.758;9.150;2023-07-24T11:14:20;13.25;;;6.85;;
45354;SDS011;31091;48.758;9.150;2023-07-24T11:17:07;7.50;;;5.25;;
45354;SDS011;31091;48.758;9.150;2023-07-24T11:19:52;10.18;;;5.75;;
45354;SDS011;31091;48.758;9.150;2023-07-24T11:22:37;12.63;;;6.35;;
45354;SDS011;31091;48.758;9.150;2023-07-24T11:25:23;11.02;;;5.78;;
45354;SDS011;31091;48.758;9.150;2023-07-24T11:28:09;12.90;;;6.97;;
45354;SDS011;31091;48.758;9.150;2023-07-24T11:30:55;11.98;;;6.53;;
45354;SDS011;31091;48.758;9.150;2023-07-24T11:33:47;11.55;;;6.70;;
45354;SDS011;31091;48.758;9.150;2023-07-24T11:36:33;9.43;;;5.72;;
45354;SDS011;31091;48.758;9.150;2023-07-24T11:39:22;12.65;;;6.70;;
45354;SDS011;31091;48.758;9.150;2023-07-24T11:42:07;12.63;;;7.18;;
45354;SDS011;31091;48.758;9.150;2023-07-24T11:44:53;10.48;;;6.57;;
45354;SDS011;31091;48.758;9.150;2023-07-24T11:47:45;10.07;;;6.63;;
45354;SDS011;31091;48.758;9.150;2023-07-24T11:50:41;11.40;;;6.50;;
45354;SDS011;31091;48.758;9.150;2023-07-24T11:53:27;12.15;;;6.25;;
45354;SDS011;31091;48.758;9.150;2023-07-24T11:56:14;9.90;;;6.07;;
45354;SDS011;31091;48.758;9.150;2023-07-24T11:59:14;12.27;;;6.57;;
45354;SDS011;31091;48.758;9.150;2023-07-24T12:02:00;10.00;;;5.57;;
45354;SDS011;31091;48.758;9.150;2023-07-24T12:04:46;10.38;;;5.97;;
45354;SDS011;31091;48.758;9.150;2023-07-24T12:07:32;11.00;;;5.72;;
45354;SDS011;31091;48.758;9.150;2023-07-24T12:10:27;10.90;;;5.53;;
45354;SDS011;31091;48.758;9.150;2023-07-24T12:13:12;10.75;;;6.32;;
45354;SDS011;31091;48.758;9.150;2023-07-24T12:15:57;13.07;;;6.20;;
45354;SDS011;31091;48.758;9.150;2023-07-24T12:18:43;10.98;;;6.50;;
45354;SDS011;31091;48.758;9.150;2023-07-24T12:21:28;11.45;;;5.10;;
45354;SDS011;31091;48.758;9.150;2023-07-24T12:24:13;9.70;;;6.25;;
45354;SDS011;31091;48.758;9.150;2023-07-24T12:26:59;9.30;;;5.97;;
45354;SDS011;31091;48.758;9.150;2023-07-24T12:29:44;8.75;;;5.20;;
45354;SDS011;31091;48.758;9.150;2023-07-24T12:32:29;11.55;;;6.43;;
45354;SDS011;31091;48.758;9.150;2023-07-24T12:35:15;10.55;;;6.50;;
45354;SDS011;31091;48.758;9.150;2023-07-24T12:38:00;10.73;;;6.18;;
45354;SDS011;31091;48.758;9.150;2023-07-24T12:40:45;8.40;;;4.90;;
45354;SDS011;31091;48.758;9.150;2023-07-24T12:43:31;11.52;;;5.70;;
45354;SDS011;31091;48.758;9.150;2023-07-24T12:46:16;12.73;;;6.30;;
45354;SDS011;31091;48.758;9.150;2023-07-24T12:49:01;12.30;;;6.65;;
45354;SDS011;31091;48.758;9.150;2023-07-24T12:51:47;10.15;;;6.03;;
45354;SDS011;31091;48.758;9.150;2023-07-24T12:54:32;8.45;;;4.80;;
45354;SDS011;31091;48.758;9.150;2023-07-24T12:57:17;10.90;;;5.97;;
45354;SDS011;31091;48.758;9.150;2023-07-24T13:00:03;8.02;;;5.47;;
45354;SDS011;31091;48.758;9.150;2023-07-24T13:02:49;15.77;;;6.00;;
45354;SDS011;31091;48.758;9.150;2023-07-24T13:05:35;9.95;;;4.55;;
45354;SDS011;31091;48.758;9.150;2023-07-24T13:08:20;9.20;;;5.53;;
45354;SDS011;31091;48.758;9.150;2023-07-24T13:11:07;10.65;;;5.90;;
45354;SDS011;31091;48.758;9.150;2023-07-24T13:13:52;9.88;;;5.50;;
45354;SDS011;31091;48.758;9.150;2023-07-24T13:16:37;10.15;;;5.50;;
45354;SDS011;31091;48.758;9.150;2023-07-24T13:19:22;9.55;;;5.28;;
45354;SDS011;31091;48.758;9.150;2023-07-24T13:22:07;9.50;;;5.97;;
45354;SDS011;31091;48.758;9.150;2023-07-24T13:24:53;9.57;;;5.45;;
45354;SDS011;31091;48.758;9.150;2023-07-24T13:27:38;9.25;;;5.25;;
45354;SDS011;31091;48.758;9.150;2023-07-24T13:30:23;7.57;;;4.75;;
45354;SDS011;31091;48.758;9.150;2023-07-24T13:33:08;8.98;;;5.22;;
45354;SDS011;31091;48.758;9.150;2023-07-24T13:35:54;9.38;;;5.20;;
45354;SDS011;31091;48.758;9.150;2023-07-24T13:38:39;7.53;;;4.75;;
45354;SDS011;31091;48.758;9.150;2023-07-24T13:41:25;7.28;;;3.92;;
45354;SDS011;31091;48.758;9.150;2023-07-24T13:44:10;8.88;;;5.15;;
45354;SDS011;31091;48.758;9.150;2023-07-24T13:46:56;6.82;;;4.53;;
45354;SDS011;31091;48.758;9.150;2023-07-24T13:49:41;8.75;;;4.53;;
45354;SDS011;31091;48.758;9.150;2023-07-24T13:52:26;7.32;;;4.68;;
45354;SDS011;31091;48.758;9.150;2023-07-24T13:55:11;7.45;;;4.72;;
45354;SDS011;31091;48.758;9.150;2023-07-24T13:57:58;7.00;;;4.03;;
45354;SDS011;31091;48.758;9.150;2023-07-24T14:00:43;8.82;;;4.40;;
45354;SDS011;31091;48.758;9.150;2023-07-24T14:03:28;7.35;;;4.22;;
45354;SDS011;31091;48.758;9.150;2023-07-24T14:06:14;7.10;;;4.82;;
45354;SDS011;31091;48.758;9.150;2023-07-24T14:08:59;6.35;;;4.20;;
45354;SDS011;31091;48.758;9.150;2023-07-24T14:11:44;7.82;;;4.13;;
45354;SDS011;31091;48.758;9.150;2023-07-24T14:14:29;7.93;;;4.68;;
45354;SDS011;31091;48.758;9.150;2023-07-24T14:17:14;7.57;;;4.40;;
45354;SDS011;31091;48.758;9.150;2023-07-24T14:20:00;8.30;;;4.47;;
45354;SDS011;31091;48.758;9.150;2023-07-24T14:22:46;7.18;;;4.10;;
45354;SDS011;31091;48.758;9.150;2023-07-24T14:25:31;7.18;;;4.18;;
45354;SDS011;31091;48.758;9.150;2023-07-24T14:28:16;10.75;;;4.45;;
45354;SDS011;31091;48.758;9.150;2023-07-24T14:31:01;7.03;;;4.00;;
45354;SDS011;31091;48.758;9.150;2023-07-24T14:33:47;7.15;;;3.75;;
45354;SDS011;31091;48.758;9.150;2023-07-24T14:36:32;6.82;;;3.78;;
45354;SDS011;31091;48.758;9.150;2023-07-24T14:39:18;6.82;;;4.03;;
45354;SDS011;31091;48.758;9.150;2023-07-24T14:42:04;3.83;;;2.63;;
45354;SDS011;31091;48.758;9.150;2023-07-24T14:44:49;7.93;;;3.80;;
45354;SDS011;31091;48.758;9.150;2023-07-24T14:47:34;8.27;;;4.28;;
45354;SDS011;31091;48.758;9.150;2023-07-24T14:50:19;5.55;;;3.40;;
45354;SDS011;31091;48.758;9.150;2023-07-24T14:53:05;5.07;;;3.63;;
45354;SDS011;31091;48.758;9.150;2023-07-24T14:55:50;6.30;;;3.97;;
45354;SDS011;31091;48.758;9.150;2023-07-24T14:58:35;6.72;;;3.95;;
45354;SDS011;31091;48.758;9.150;2023-07-24T15:01:20;5.65;;;3.83;;
45354;SDS011;31091;48.758;9.150;2023-07-24T15:04:06;7.60;;;3.72;;
45354;SDS011;31091;48.758;9.150;2023-07-24T15:06:51;6.05;;;4.03;;
45354;SDS011;31091;48.758;9.150;2023-07-24T15:09:36;6.25;;;3.25;;
45354;SDS011;31091;48.758;9.150;2023-07-24T15:12:21;6.10;;;3.20;;
45354;SDS011;31091;48.758;9.150;2023-07-24T15:15:07;6.93;;;3.80;;
45354;SDS011;31091;48.758;9.150;2023-07-24T15:17:52;6.20;;;3.55;;
45354;SDS011;31091;48.758;9.150;2023-07-24T15:20:37;4.68;;;3.25;;
45354;SDS011;31091;48.758;9.150;2023-07-24T15:23:22;9.15;;;3.78;;
45354;SDS011;31091;48.758;9.150;2023-07-24T15:26:08;6.57;;;3.58;;
45354;SDS011;31091;48.758;9.150;2023-07-24T15:28:53;6.30;;;3.40;;
45354;SDS011;31091;48.758;9.150;2023-07-24T15:31:39;8.90;;;3.63;;
45354;SDS011;31091;48.758;9.150;2023-07-24T15:34:25;6.13;;;3.80;;
45354;SDS011;31091;48.758;9.150;2023-07-24T15:37:11;10.30;;;4.70;;
45354;SDS011;31091;48.758;9.150;2023-07-24T15:39:59;6.30;;;3.63;;
45354;SDS011;31091;48.758;9.150;2023-07-24T15:42:44;7.13;;;3.40;;
45354;SDS011;31091;48.758;9.150;2023-07-24T15:45:31;5.50;;;3.38;;
45354;SDS011;31091;48.758;9.150;2023-07-24T15:48:16;4.82;;;3.10;;
45354;SDS011;31091;48.758;9.150;2023-07-24T15:51:01;7.15;;;3.65;;
45354;SDS011;31091;48.758;9.150;2023-07-24T15:53:47;6.95;;;3.63;;
45354;SDS011;31091;48.758;9.150;2023-07-24T15:56:33;5.30;;;3.10;;
45354;SDS011;31091;48.758;9.150;2023-07-24T15:59:18;5.55;;;3.55;;
45354;SDS011;31091;48.758;9.150;2023-07-24T16:02:04;5.28;;;3.13;;
45354;SDS011;31091;48.758;9.150;2023-07-24T16:04:50;7.60;;;4.25;;
45354;SDS011;31091;48.758;9.150;2023-07-24T16:07:35;9.60;;;3.78;;
45354;SDS011;31091;48.758;9.150;2023-07-24T16:10:20;6.38;;;3.90;;
45354;SDS011;31091;48.758;9.150;2023-07-24T16:13:05;7.80;;;3.67;;
45354;SDS011;31091;48.758;9.150;2023-07-24T16:15:51;8.15;;;3.83;;
45354;SDS011;31091;48.758;9.150;2023-07-24T16:18:36;5.97;;;3.58;;
45354;SDS011;31091;48.758;9.150;2023-07-24T16:21:21;7.97;;;3.95;;
45354;SDS011;31091;48.758;9.150;2023-07-24T16:24:10;7.07;;;3.47;;
45354;SDS011;31091;48.758;9.150;2023-07-24T16:26:55;7.78;;;4.13;;
45354;SDS011;31091;48.758;9.150;2023-07-24T16:29:41;7.90;;;4.13;;
45354;SDS011;31091;48.758;9.150;2023-07-24T16:32:26;7.80;;;3.33;;
45354;SDS011;31091;48.758;9.150;2023-07-24T16:35:11;8.55;;;4.30;;
45354;SDS011;31091;48.758;9.150;2023-07-24T16:37:56;7.95;;;3.88;;